sensor_id;sensor_type;location;lat;lon;timestamp;pressure;altitude;pressure_sealevel;temperature;humidity
33163;BME280;29282;45.656;11.302;2022-09-27T00:00:26;96939.78;;;20.36;55.88
33163;BME280;29282;45.656;11.302;2022-09-27T00:02:51;96933.44;;;20.36;55.99
33163;BME280;29282;45.656;11.302;2022-09-27T00:05:17;96929.13;;;20.35;55.90
33163;BME280;29282;45.656;11.302;2022-09-27T00:07:43;96929.13;;;20.35;55.74
33163;BME280;29282;45.656;11.302;2022-09-27T00:10:10;96915.38;;;20.35;55.88
33163;BME280;29282;45.656;11.302;2022-09-27T00:12:36;96915.38;;;20.35;55.67
33163;BME280;29282;45.656;11.302;2022-09-27T00:15:05;96911.84;;;20.34;55.83
33163;BME280;29282;45.656;11.302;2022-09-27T00:17:31;96917.34;;;20.34;55.77
33163;BME280;29282;45.656;11.302;2022-09-27T00:20:01;96909.09;;;20.34;55.77
33163;BME280;29282;45.656;11.302;2022-09-27T00:22:27;96918.13;;;20.35;55.77
33163;BME280;29282;45.656;11.302;2022-09-27T00:24:53;96911.06;;;20.34;55.77
33163;BME280;29282;45.656;11.302;2022-09-27T00:27:19;96913.81;;;20.34;55.86
33163;BME280;29282;45.656;11.302;2022-09-27T00:29:45;96911.06;;;20.34;55.78
33163;BME280;29282;45.656;11.302;2022-09-27T00:32:12;96919.31;;;20.34;55.85
33163;BME280;29282;45.656;11.302;2022-09-27T00:34:39;96916.56;;;20.34;55.70
33163;BME280;29282;45.656;11.302;2022-09-27T00:37:06;96913.81;;;20.34;55.89
33163;BME280;29282;45.656;11.302;2022-09-27T00:39:31;96901.19;;;20.33;55.89
33163;BME280;29282;45.656;11.302;2022-09-27T00:41:57;96897.31;;;20.34;55.76
33163;BME280;29282;45.656;11.302;2022-09-27T00:47:05;96893.75;;;20.33;55.63
33163;BME280;29282;45.656;11.302;2022-09-27T00:49:43;96886.66;;;20.32;55.90
33163;BME280;29282;45.656;11.302;2022-09-27T00:52:15;96883.91;;;20.32;55.72
33163;BME280;29282;45.656;11.302;2022-09-27T00:54:48;96889.41;;;20.32;55.85
33163;BME280;29282;45.656;11.302;2022-09-27T00:57:15;96889.41;;;20.32;55.85
33163;BME280;29282;45.656;11.302;2022-09-27T00:59:47;96895.69;;;20.33;55.80
33163;BME280;29282;45.656;11.302;2022-09-27T01:02:15;96900.41;;;20.32;55.79
33163;BME280;29282;45.656;11.302;2022-09-27T01:04:41;96894.91;;;20.32;55.81
33163;BME280;29282;45.656;11.302;2022-09-27T01:07:07;96900.06;;;20.34;55.70
33163;BME280;29282;45.656;11.302;2022-09-27T01:09:33;96901.19;;;20.33;55.71
33163;BME280;29282;45.656;11.302;2022-09-27T01:31:23;96904.34;;;20.31;55.80
33163;BME280;29282;45.656;11.302;2022-09-27T01:34:26;96884.31;;;20.31;55.81
33163;BME280;29282;45.656;11.302;2022-09-27T01:37:26;96881.56;;;20.31;55.69
33163;BME280;29282;45.656;11.302;2022-09-27T01:40:03;96856.81;;;20.31;55.64
33163;BME280;29282;45.656;11.302;2022-09-27T01:45:29;96860.34;;;20.31;55.69
33163;BME280;29282;45.656;11.302;2022-09-27T01:47:58;96856.03;;;20.30;55.71
33163;BME280;29282;45.656;11.302;2022-09-27T01:50:31;96837.56;;;20.31;55.75
33163;BME280;29282;45.656;11.302;2022-09-27T01:53:07;96845.81;;;20.31;55.69
33163;BME280;29282;45.656;11.302;2022-09-27T01:55:39;96844.22;;;20.30;55.67
33163;BME280;29282;45.656;11.302;2022-09-27T01:58:29;96842.28;;;20.30;55.72
33163;BME280;29282;45.656;11.302;2022-09-27T02:00:58;96856.03;;;20.30;55.51
33163;BME280;29282;45.656;11.302;2022-09-27T02:03:33;96855.22;;;20.30;55.69
33163;BME280;29282;45.656;11.302;2022-09-27T02:06:09;96846.16;;;20.29;55.62
33163;BME280;29282;45.656;11.302;2022-09-27T02:08:57;96846.97;;;20.30;55.60
33163;BME280;29282;45.656;11.302;2022-09-27T02:11:27;96851.66;;;20.29;55.68
33163;BME280;29282;45.656;11.302;2022-09-27T02:22:48;96856.03;;;20.30;55.88
33163;BME280;29282;45.656;11.302;2022-09-27T02:24:53;96838.72;;;20.30;55.62
33163;BME280;29282;45.656;11.302;2022-09-27T02:27:58;96849.72;;;20.30;55.63
33163;BME280;29282;45.656;11.302;2022-09-27T02:30:16;96853.63;;;20.29;55.84
33163;BME280;29282;45.656;11.302;2022-09-27T02:32:42;96854.41;;;20.29;55.62
33163;BME280;29282;45.656;11.302;2022-09-27T02:35:21;96857.16;;;20.29;55.79
33163;BME280;29282;45.656;11.302;2022-09-27T02:37:47;96850.88;;;20.29;55.77
33163;BME280;29282;45.656;11.302;2022-09-27T02:40:13;96850.88;;;20.29;55.67
33163;BME280;29282;45.656;11.302;2022-09-27T02:42:41;96853.63;;;20.29;55.72
33163;BME280;29282;45.656;11.302;2022-09-27T02:45:08;96841.44;;;20.26;55.80
33163;BME280;29282;45.656;11.302;2022-09-27T02:51:08;96821.81;;;20.28;55.64
33163;BME280;29282;45.656;11.302;2022-09-27T02:53:44;96823.78;;;20.27;55.60
33163;BME280;29282;45.656;11.302;2022-09-27T02:56:25;96827.31;;;20.28;55.76
33163;BME280;29282;45.656;11.302;2022-09-27T03:05:02;96854.81;;;20.28;55.65
33163;BME280;29282;45.656;11.302;2022-09-27T03:07:30;96852.06;;;20.28;55.75
33163;BME280;29282;45.656;11.302;2022-09-27T03:09:56;96854.03;;;20.27;55.83
33163;BME280;29282;45.656;11.302;2022-09-27T03:12:22;96852.06;;;20.28;55.70
33163;BME280;29282;45.656;11.302;2022-09-27T03:14:55;96834.78;;;20.27;55.88
33163;BME280;29282;45.656;11.302;2022-09-27T03:17:21;96825.75;;;20.27;55.62
33163;BME280;29282;45.656;11.302;2022-09-27T03:19:48;96831.25;;;20.27;55.64
33163;BME280;29282;45.656;11.302;2022-09-27T03:22:14;96829.66;;;20.26;55.82
33163;BME280;29282;45.656;11.302;2022-09-27T03:24:39;96821.41;;;20.26;55.73
33163;BME280;29282;45.656;11.302;2022-09-27T03:27:05;96815.91;;;20.26;55.65
33163;BME280;29282;45.656;11.302;2022-09-27T03:29:31;96808.44;;;20.26;55.80
33163;BME280;29282;45.656;11.302;2022-09-27T03:31:57;96800.19;;;20.26;55.71
33163;BME280;29282;45.656;11.302;2022-09-27T03:34:22;96795.84;;;20.25;55.81
33163;BME280;29282;45.656;11.302;2022-09-27T03:36:49;96784.84;;;20.25;55.73
33163;BME280;29282;45.656;11.302;2022-09-27T03:39:14;96793.53;;;20.27;55.67
33163;BME280;29282;45.656;11.302;2022-09-27T03:41:40;96784.84;;;20.25;55.63
33163;BME280;29282;45.656;11.302;2022-09-27T03:44:06;96785.63;;;20.26;55.73
33163;BME280;29282;45.656;11.302;2022-09-27T03:46:31;96785.63;;;20.26;55.61
33163;BME280;29282;45.656;11.302;2022-09-27T03:48:57;96791.13;;;20.26;55.75
33163;BME280;29282;45.656;11.302;2022-09-27T03:51:23;96784.06;;;20.25;55.80
33163;BME280;29282;45.656;11.302;2022-09-27T03:53:48;96780.53;;;20.24;55.82
33163;BME280;29282;45.656;11.302;2022-09-27T03:56:14;96771.88;;;20.26;55.76
33163;BME280;29282;45.656;11.302;2022-09-27T03:58:39;96769.13;;;20.26;55.79
33163;BME280;29282;45.656;11.302;2022-09-27T04:01:05;96772.69;;;20.26;55.64
33163;BME280;29282;45.656;11.302;2022-09-27T04:03:30;96772.69;;;20.26;55.72
33163;BME280;29282;45.656;11.302;2022-09-27T04:05:56;96784.50;;;20.27;55.65
33163;BME280;29282;45.656;11.302;2022-09-27T04:08:21;96779.00;;;20.27;55.68
33163;BME280;29282;45.656;11.302;2022-09-27T04:10:48;96780.56;;;20.28;55.82
33163;BME280;29282;45.656;11.302;2022-09-27T04:13:13;96788.41;;;20.29;55.86
33163;BME280;29282;45.656;11.302;2022-09-27T04:15:39;96777.81;;;20.28;55.82
33163;BME280;29282;45.656;11.302;2022-09-27T04:18:05;96778.59;;;20.28;55.86
33163;BME280;29282;45.656;11.302;2022-09-27T04:20:32;96779.78;;;20.27;55.68
33163;BME280;29282;45.656;11.302;2022-09-27T04:22:57;96773.09;;;20.28;55.85
33163;BME280;29282;45.656;11.302;2022-09-27T04:25:23;96773.88;;;20.29;55.92
33163;BME280;29282;45.656;11.302;2022-09-27T04:27:48;96776.63;;;20.29;55.82
33163;BME280;29282;45.656;11.302;2022-09-27T04:30:20;96773.88;;;20.29;56.12
33163;BME280;29282;45.656;11.302;2022-09-27T04:32:46;96768.38;;;20.29;56.02
33163;BME280;29282;45.656;11.302;2022-09-27T04:35:15;96771.91;;;20.29;55.90
33163;BME280;29282;45.656;11.302;2022-09-27T04:38:02;96766.41;;;20.29;56.01
33163;BME280;29282;45.656;11.302;2022-09-27T04:40:28;96768.38;;;20.29;56.25
33163;BME280;29282;45.656;11.302;2022-09-27T04:42:54;96758.56;;;20.28;56.03
33163;BME280;29282;45.656;11.302;2022-09-27T04:45:20;96759.34;;;20.28;56.21
33163;BME280;29282;45.656;11.302;2022-09-27T04:47:48;96762.09;;;20.28;56.04
33163;BME280;29282;45.656;11.302;2022-09-27T04:50:15;96757.38;;;20.29;56.15
33163;BME280;29282;45.656;11.302;2022-09-27T04:52:41;96756.59;;;20.28;56.16
33163;BME280;29282;45.656;11.302;2022-09-27T04:55:08;96748.34;;;20.28;56.04
33163;BME280;29282;45.656;11.302;2022-09-27T04:57:37;96762.88;;;20.29;56.15
33163;BME280;29282;45.656;11.302;2022-09-27T05:00:03;96760.13;;;20.29;56.09
33163;BME280;29282;45.656;11.302;2022-09-27T05:02:29;96764.47;;;20.30;56.08
33163;BME280;29282;45.656;11.302;2022-09-27T05:04:55;96771.13;;;20.29;56.26
33163;BME280;29282;45.656;11.302;2022-09-27T05:07:23;96765.63;;;20.29;56.02
33163;BME280;29282;45.656;11.302;2022-09-27T05:09:48;96762.09;;;20.28;56.19
33163;BME280;29282;45.656;11.302;2022-09-27T05:12:14;96775.84;;;20.28;56.21
33163;BME280;29282;45.656;11.302;2022-09-27T05:14:39;96757.38;;;20.29;55.97
33163;BME280;29282;45.656;11.302;2022-09-27T05:17:05;96766.81;;;20.28;56.38
33163;BME280;29282;45.656;11.302;2022-09-27T05:19:34;96766.81;;;20.28;56.27
33163;BME280;29282;45.656;11.302;2022-09-27T05:22:03;96770.34;;;20.28;56.32
33163;BME280;29282;45.656;11.302;2022-09-27T05:24:28;96755.81;;;20.28;56.35
33163;BME280;29282;45.656;11.302;2022-09-27T05:26:59;96752.28;;;20.27;56.37
33163;BME280;29282;45.656;11.302;2022-09-27T05:29:25;96751.50;;;20.27;56.29
33163;BME280;29282;45.656;11.302;2022-09-27T05:31:51;96746.00;;;20.27;56.25
33163;BME280;29282;45.656;11.302;2022-09-27T05:34:16;96753.44;;;20.26;56.29
33163;BME280;29282;45.656;11.302;2022-09-27T05:36:47;96759.75;;;20.27;56.29
33163;BME280;29282;45.656;11.302;2022-09-27T05:39:13;96766.03;;;20.27;56.40
33163;BME280;29282;45.656;11.302;2022-09-27T05:41:41;96763.28;;;20.27;56.42
33163;BME280;29282;45.656;11.302;2022-09-27T05:44:07;96751.84;;;20.25;56.38
33163;BME280;29282;45.656;11.302;2022-09-27T05:46:32;96751.84;;;20.25;56.43
33163;BME280;29282;45.656;11.302;2022-09-27T05:48:58;96749.88;;;20.26;56.25
33163;BME280;29282;45.656;11.302;2022-09-27T05:51:23;96742.41;;;20.26;56.41
33163;BME280;29282;45.656;11.302;2022-09-27T05:53:49;96735.75;;;20.24;56.23
33163;BME280;29282;45.656;11.302;2022-09-27T05:56:15;96740.06;;;20.25;56.28
33163;BME280;29282;45.656;11.302;2022-09-27T05:58:41;96746.34;;;20.25;56.30
33163;BME280;29282;45.656;11.302;2022-09-27T06:01:10;96744.38;;;20.26;56.12
33163;BME280;29282;45.656;11.302;2022-09-27T06:03:35;96749.88;;;20.26;56.27
33163;BME280;29282;45.656;11.302;2022-09-27T06:06:02;96747.13;;;20.26;56.32
33163;BME280;29282;45.656;11.302;2022-09-27T06:08:34;96743.59;;;20.25;56.20
33163;BME280;29282;45.656;11.302;2022-09-27T06:11:01;96751.50;;;20.27;56.23
33163;BME280;29282;45.656;11.302;2022-09-27T06:13:34;96748.75;;;20.27;56.26
33163;BME280;29282;45.656;11.302;2022-09-27T06:16:01;96758.94;;;20.26;56.15
33163;BME280;29282;45.656;11.302;2022-09-27T06:18:27;96759.75;;;20.27;56.27
33163;BME280;29282;45.656;11.302;2022-09-27T06:20:53;96761.66;;;20.26;56.41
33163;BME280;29282;45.656;11.302;2022-09-27T06:23:20;96749.09;;;20.25;56.23
33163;BME280;29282;45.656;11.302;2022-09-27T06:25:50;96756.56;;;20.25;56.06
33163;BME280;29282;45.656;11.302;2022-09-27T06:28:16;96760.88;;;20.26;56.37
33163;BME280;29282;45.656;11.302;2022-09-27T06:30:44;96753.81;;;20.25;56.33
33163;BME280;29282;45.656;11.302;2022-09-27T06:33:12;96747.13;;;20.26;56.26
33163;BME280;29282;45.656;11.302;2022-09-27T06:35:38;96751.06;;;20.25;56.31
33163;BME280;29282;45.656;11.302;2022-09-27T06:38:05;96763.25;;;20.24;56.36
33163;BME280;29282;45.656;11.302;2022-09-27T06:40:33;96771.94;;;20.33;56.42
33163;BME280;29282;45.656;11.302;2022-09-27T06:43:07;96788.09;;;20.38;56.23
33163;BME280;29282;45.656;11.302;2022-09-27T06:45:36;96794.38;;;20.42;56.02
33163;BME280;29282;45.656;11.302;2022-09-27T06:48:03;96784.56;;;20.41;56.02
33163;BME280;29282;45.656;11.302;2022-09-27T06:50:30;96776.69;;;20.39;56.01
33163;BME280;29282;45.656;11.302;2022-09-27T06:52:57;96776.66;;;20.36;56.22
33163;BME280;29282;45.656;11.302;2022-09-27T06:55:23;96764.88;;;20.35;56.20
33163;BME280;29282;45.656;11.302;2022-09-27T06:57:55;96749.56;;;20.34;56.34
33163;BME280;29282;45.656;11.302;2022-09-27T07:00:39;96752.69;;;20.33;56.39
33163;BME280;29282;45.656;11.302;2022-09-27T07:03:08;96730.28;;;20.31;56.46
33163;BME280;29282;45.656;11.302;2022-09-27T07:05:36;96716.13;;;20.29;56.44
33163;BME280;29282;45.656;11.302;2022-09-27T07:08:03;96688.25;;;20.27;56.57
33163;BME280;29282;45.656;11.302;2022-09-27T07:10:34;96656.38;;;20.26;56.46
33163;BME280;29282;45.656;11.302;2022-09-27T07:13:06;96656.38;;;20.26;56.42
33163;BME280;29282;45.656;11.302;2022-09-27T07:15:36;96677.22;;;20.27;56.34
33163;BME280;29282;45.656;11.302;2022-09-27T07:18:03;96700.03;;;20.27;56.31
33163;BME280;29282;45.656;11.302;2022-09-27T07:20:29;96705.53;;;20.27;56.28
33163;BME280;29282;45.656;11.302;2022-09-27T07:22:58;96715.75;;;20.27;56.18
33163;BME280;29282;45.656;11.302;2022-09-27T07:25:24;96716.53;;;20.27;56.47
33163;BME280;29282;45.656;11.302;2022-09-27T07:27:50;96723.97;;;20.27;56.36
33163;BME280;29282;45.656;11.302;2022-09-27T07:30:19;96723.97;;;20.27;56.19
33163;BME280;29282;45.656;11.302;2022-09-27T07:32:45;96735.00;;;20.27;56.49
33163;BME280;29282;45.656;11.302;2022-09-27T07:35:12;96731.44;;;20.26;56.10
33163;BME280;29282;45.656;11.302;2022-09-27T07:37:40;96731.44;;;20.26;56.46
33163;BME280;29282;45.656;11.302;2022-09-27T07:40:08;96736.13;;;20.26;56.20
33163;BME280;29282;45.656;11.302;2022-09-27T07:42:37;96748.75;;;20.27;56.32
33163;BME280;29282;45.656;11.302;2022-09-27T07:45:05;96736.13;;;20.26;56.36
33163;BME280;29282;45.656;11.302;2022-09-27T07:47:31;96741.28;;;20.27;56.30
33163;BME280;29282;45.656;11.302;2022-09-27T07:49:57;96748.75;;;20.27;56.34
33163;BME280;29282;45.656;11.302;2022-09-27T07:52:23;96744.81;;;20.28;56.19
33163;BME280;29282;45.656;11.302;2022-09-27T07:54:48;96745.59;;;20.28;56.21
33163;BME280;29282;45.656;11.302;2022-09-27T07:57:14;96746.38;;;20.29;56.32
33163;BME280;29282;45.656;11.302;2022-09-27T07:59:40;96742.84;;;20.28;56.22
33163;BME280;29282;45.656;11.302;2022-09-27T08:02:12;96738.91;;;20.29;56.30
33163;BME280;29282;45.656;11.302;2022-09-27T08:04:41;96733.81;;;20.28;56.39
33163;BME280;29282;45.656;11.302;2022-09-27T08:07:13;96740.09;;;20.28;56.06
33163;BME280;29282;45.656;11.302;2022-09-27T08:09:39;96737.34;;;20.28;56.25
33163;BME280;29282;45.656;11.302;2022-09-27T08:12:04;96735.00;;;20.27;56.34
33163;BME280;29282;45.656;11.302;2022-09-27T08:14:30;96734.59;;;20.28;56.14
33163;BME280;29282;45.656;11.302;2022-09-27T08:16:56;96738.53;;;20.27;56.27
33163;BME280;29282;45.656;11.302;2022-09-27T08:19:22;96740.50;;;20.27;56.23
33163;BME280;29282;45.656;11.302;2022-09-27T08:21:47;96744.03;;;20.27;56.07
33163;BME280;29282;45.656;11.302;2022-09-27T08:24:13;96742.06;;;20.28;56.27
33163;BME280;29282;45.656;11.302;2022-09-27T08:26:39;96744.81;;;20.28;56.18
33163;BME280;29282;45.656;11.302;2022-09-27T08:29:05;96738.53;;;20.27;56.16
33163;BME280;29282;45.656;11.302;2022-09-27T08:31:30;96742.06;;;20.28;56.15
33163;BME280;29282;45.656;11.302;2022-09-27T08:33:56;96744.81;;;20.28;56.05
33163;BME280;29282;45.656;11.302;2022-09-27T08:36:22;96735.00;;;20.27;56.11
33163;BME280;29282;45.656;11.302;2022-09-27T08:38:51;96733.03;;;20.27;55.85
33163;BME280;29282;45.656;11.302;2022-09-27T08:52:07;96729.88;;;20.29;56.11
33163;BME280;29282;45.656;11.302;2022-09-27T08:54:38;96729.88;;;20.29;56.36
33163;BME280;29282;45.656;11.302;2022-09-27T08:57:09;96716.13;;;20.29;56.17
33163;BME280;29282;45.656;11.302;2022-09-27T09:00:04;96722.03;;;20.27;56.03
33163;BME280;29282;45.656;11.302;2022-09-27T09:02:30;96715.34;;;20.28;56.00
33163;BME280;29282;45.656;11.302;2022-09-27T09:05:04;96719.66;;;20.29;56.06
33163;BME280;29282;45.656;11.302;2022-09-27T09:13:23;96714.56;;;20.28;56.07
33163;BME280;29282;45.656;11.302;2022-09-27T09:16:00;96720.84;;;20.28;56.02
33163;BME280;29282;45.656;11.302;2022-09-27T09:29:04;96713.78;;;20.27;56.20
33163;BME280;29282;45.656;11.302;2022-09-27T09:31:41;96704.72;;;20.27;56.14
33163;BME280;29282;45.656;11.302;2022-09-27T09:34:19;96713.00;;;20.27;56.23
33163;BME280;29282;45.656;11.302;2022-09-27T09:36:53;96704.34;;;20.28;56.24
33163;BME280;29282;45.656;11.302;2022-09-27T09:44:52;96700.03;;;20.27;56.19
33163;BME280;29282;45.656;11.302;2022-09-27T09:47:40;96704.72;;;20.27;56.29
33163;BME280;29282;45.656;11.302;2022-09-27T09:50:21;96700.03;;;20.27;55.96
33163;BME280;29282;45.656;11.302;2022-09-27T09:53:14;96700.81;;;20.28;56.19
33163;BME280;29282;45.656;11.302;2022-09-27T09:55:44;96700.03;;;20.27;56.05
33163;BME280;29282;45.656;11.302;2022-09-27T10:00:37;96689.03;;;20.27;55.99
33163;BME280;29282;45.656;11.302;2022-09-27T10:03:03;96693.72;;;20.27;56.15
33163;BME280;29282;45.656;11.302;2022-09-27T10:05:29;96690.16;;;20.26;56.03
33163;BME280;29282;45.656;11.302;2022-09-27T10:08:03;96696.88;;;20.29;55.95
33163;BME280;29282;45.656;11.302;2022-09-27T10:10:31;96694.53;;;20.27;56.20
33163;BME280;29282;45.656;11.302;2022-09-27T10:12:56;96692.56;;;20.28;56.05
33163;BME280;29282;45.656;11.302;2022-09-27T10:15:25;96698.84;;;20.28;56.07
33163;BME280;29282;45.656;11.302;2022-09-27T10:17:57;96700.81;;;20.28;56.12
33163;BME280;29282;45.656;11.302;2022-09-27T10:20:50;96693.34;;;20.28;56.14
33163;BME280;29282;45.656;11.302;2022-09-27T10:23:24;96701.59;;;20.28;55.98
33163;BME280;29282;45.656;11.302;2022-09-27T10:25:58;96690.59;;;20.28;56.05
33163;BME280;29282;45.656;11.302;2022-09-27T10:30:59;96693.34;;;20.28;56.09
33163;BME280;29282;45.656;11.302;2022-09-27T10:33:25;96689.03;;;20.27;56.19
33163;BME280;29282;45.656;11.302;2022-09-27T10:35:51;96689.03;;;20.27;56.17
33163;BME280;29282;45.656;11.302;2022-09-27T10:40:43;96689.03;;;20.27;56.03
33163;BME280;29282;45.656;11.302;2022-09-27T10:43:26;96682.72;;;20.27;56.12
33163;BME280;29282;45.656;11.302;2022-09-27T10:46:09;96682.72;;;20.27;56.00
33163;BME280;29282;45.656;11.302;2022-09-27T10:48:37;96675.63;;;20.26;56.01
33163;BME280;29282;45.656;11.302;2022-09-27T10:51:21;96683.53;;;20.27;56.09
33163;BME280;29282;45.656;11.302;2022-09-27T10:53:48;96688.25;;;20.27;56.16
33163;BME280;29282;45.656;11.302;2022-09-27T10:56:25;96688.25;;;20.27;56.34
33163;BME280;29282;45.656;11.302;2022-09-27T10:58:53;96680.38;;;20.29;56.06
33163;BME280;29282;45.656;11.302;2022-09-27T11:01:19;96674.88;;;20.29;56.12
33163;BME280;29282;45.656;11.302;2022-09-27T11:03:56;96674.09;;;20.28;55.95
33163;BME280;29282;45.656;11.302;2022-09-27T11:08:50;96667.81;;;20.28;56.21
33163;BME280;29282;45.656;11.302;2022-09-27T11:11:22;96670.16;;;20.29;56.12
33163;BME280;29282;45.656;11.302;2022-09-27T11:14:01;96663.50;;;20.30;56.16
33163;BME280;29282;45.656;11.302;2022-09-27T11:16:59;96664.28;;;20.31;56.22
33163;BME280;29282;45.656;11.302;2022-09-27T11:27:50;96660.75;;;20.34;56.10
33163;BME280;29282;45.656;11.302;2022-09-27T11:30:21;96663.09;;;20.32;55.94
33163;BME280;29282;45.656;11.302;2022-09-27T11:41:23;96648.16;;;20.33;56.20
33163;BME280;29282;45.656;11.302;2022-09-27T11:46:38;96653.28;;;20.31;56.55
33163;BME280;29282;45.656;11.302;2022-09-27T11:49:45;96659.16;;;20.33;56.28
33163;BME280;29282;45.656;11.302;2022-09-27T11:52:43;96654.47;;;20.33;56.39
33163;BME280;29282;45.656;11.302;2022-09-27T11:55:22;96657.22;;;20.33;56.36
33163;BME280;29282;45.656;11.302;2022-09-27T12:09:40;96645.81;;;20.35;56.52
33163;BME280;29282;45.656;11.302;2022-09-27T12:14:48;96645.06;;;20.38;55.97
33163;BME280;29282;45.656;11.302;2022-09-27T12:17:21;96641.53;;;20.37;56.44
33163;BME280;29282;45.656;11.302;2022-09-27T12:19:57;96636.03;;;20.37;56.34
33163;BME280;29282;45.656;11.302;2022-09-27T12:22:27;96636.81;;;20.38;56.32
33163;BME280;29282;45.656;11.302;2022-09-27T12:24:55;96636.03;;;20.37;56.44
33163;BME280;29282;45.656;11.302;2022-09-27T12:27:35;96640.34;;;20.38;56.75
33163;BME280;29282;45.656;11.302;2022-09-27T12:30:04;96638.78;;;20.37;56.40
33163;BME280;29282;45.656;11.302;2022-09-27T12:35:28;96637.19;;;20.36;56.40
33163;BME280;29282;45.656;11.302;2022-09-27T12:40:50;96641.88;;;20.36;56.76
33163;BME280;29282;45.656;11.302;2022-09-27T12:43:22;96643.88;;;20.39;56.49
33163;BME280;29282;45.656;11.302;2022-09-27T12:48:59;96638.00;;;20.44;56.31
33163;BME280;29282;45.656;11.302;2022-09-27T12:51:35;96631.31;;;20.45;56.26
33163;BME280;29282;45.656;11.302;2022-09-27T12:57:06;96635.31;;;20.51;56.33
33163;BME280;29282;45.656;11.302;2022-09-27T13:12:30;96628.25;;;20.61;56.18
33163;BME280;29282;45.656;11.302;2022-09-27T13:17:51;96625.09;;;20.59;56.22
33163;BME280;29282;45.656;11.302;2022-09-27T13:22:55;96627.47;;;20.57;56.24
33163;BME280;29282;45.656;11.302;2022-09-27T13:25:47;96620.00;;;20.57;56.14
33163;BME280;29282;45.656;11.302;2022-09-27T13:33:48;96627.84;;;20.59;56.03
33163;BME280;29282;45.656;11.302;2022-09-27T13:36:25;96625.50;;;20.57;56.27
33163;BME280;29282;45.656;11.302;2022-09-27T13:41:27;96634.13;;;20.56;56.13
33163;BME280;29282;45.656;11.302;2022-09-27T13:46:54;96632.56;;;20.55;56.37
33163;BME280;29282;45.656;11.302;2022-09-27T13:52:01;96627.06;;;20.58;56.09
33163;BME280;29282;45.656;11.302;2022-09-27T13:56:59;96636.13;;;20.62;56.28
33163;BME280;29282;45.656;11.302;2022-09-27T13:59:42;96627.06;;;20.62;56.08
33163;BME280;29282;45.656;11.302;2022-09-27T14:02:19;96633.38;;;20.62;56.29
33163;BME280;29282;45.656;11.302;2022-09-27T14:04:50;96634.97;;;20.63;56.15
33163;BME280;29282;45.656;11.302;2022-09-27T14:07:25;96636.13;;;20.62;56.20
33163;BME280;29282;45.656;11.302;2022-09-27T14:09:55;96638.09;;;20.62;56.19
33163;BME280;29282;45.656;11.302;2022-09-27T14:12:28;96645.97;;;20.63;56.29
33163;BME280;29282;45.656;11.302;2022-09-27T14:14:59;96642.03;;;20.64;56.05
33163;BME280;29282;45.656;11.302;2022-09-27T14:17:27;96645.97;;;20.63;56.17
33163;BME280;29282;45.656;11.302;2022-09-27T14:19:55;96652.63;;;20.62;56.36
33163;BME280;29282;45.656;11.302;2022-09-27T14:22:22;96654.22;;;20.63;56.23
33163;BME280;29282;45.656;11.302;2022-09-27T14:24:52;96659.72;;;20.63;56.18
33163;BME280;29282;45.656;11.302;2022-09-27T14:27:22;96664.03;;;20.64;56.26
33163;BME280;29282;45.656;11.302;2022-09-27T14:29:53;96666.78;;;20.64;56.10
33163;BME280;29282;45.656;11.302;2022-09-27T14:32:29;96664.03;;;20.64;56.31
33163;BME280;29282;45.656;11.302;2022-09-27T14:35:12;96657.75;;;20.64;56.17
33163;BME280;29282;45.656;11.302;2022-09-27T14:38:01;96665.22;;;20.63;56.30
33163;BME280;29282;45.656;11.302;2022-09-27T14:40:27;96669.94;;;20.63;56.39
33163;BME280;29282;45.656;11.302;2022-09-27T14:42:58;96670.72;;;20.63;56.18
33163;BME280;29282;45.656;11.302;2022-09-27T14:45:29;96670.72;;;20.63;56.38
33163;BME280;29282;45.656;11.302;2022-09-27T14:47:59;96673.47;;;20.63;56.23
33163;BME280;29282;45.656;11.302;2022-09-27T14:50:27;96675.06;;;20.64;56.21
33163;BME280;29282;45.656;11.302;2022-09-27T14:52:57;96686.06;;;20.64;56.18
33163;BME280;29282;45.656;11.302;2022-09-27T14:55:26;96683.31;;;20.64;56.35
33163;BME280;29282;45.656;11.302;2022-09-27T14:58:00;96683.72;;;20.63;56.15
33163;BME280;29282;45.656;11.302;2022-09-27T15:00:29;96690.00;;;20.63;56.12
33163;BME280;29282;45.656;11.302;2022-09-27T15:02:58;96687.25;;;20.63;56.60
33163;BME280;29282;45.656;11.302;2022-09-27T15:05:27;96697.06;;;20.64;56.23
33163;BME280;29282;45.656;11.302;2022-09-27T15:07:54;96684.50;;;20.63;56.35
33163;BME280;29282;45.656;11.302;2022-09-27T15:10:24;96693.91;;;20.62;56.37
33163;BME280;29282;45.656;11.302;2022-09-27T15:12:53;96694.31;;;20.64;56.29
33163;BME280;29282;45.656;11.302;2022-09-27T15:15:24;96698.25;;;20.63;56.33
33163;BME280;29282;45.656;11.302;2022-09-27T15:17:51;96699.41;;;20.62;56.30
33163;BME280;29282;45.656;11.302;2022-09-27T15:20:35;96694.72;;;20.63;56.30
33163;BME280;29282;45.656;11.302;2022-09-27T15:23:04;96695.09;;;20.61;56.48
33163;BME280;29282;45.656;11.302;2022-09-27T15:25:41;96689.56;;;20.61;56.28
33163;BME280;29282;45.656;11.302;2022-09-27T15:30:41;96689.16;;;20.59;56.48
33163;BME280;29282;45.656;11.302;2022-09-27T15:33:22;96694.66;;;20.59;56.44
33163;BME280;29282;45.656;11.302;2022-09-27T15:35:55;96688.38;;;20.59;56.46
33163;BME280;29282;45.656;11.302;2022-09-27T15:38:29;96700.19;;;20.59;56.25
33163;BME280;29282;45.656;11.302;2022-09-27T15:40:59;96701.34;;;20.58;56.36
33163;BME280;29282;45.656;11.302;2022-09-27T15:43:30;96691.53;;;20.57;56.35
33163;BME280;29282;45.656;11.302;2022-09-27T15:45:58;96694.28;;;20.57;56.10
33163;BME280;29282;45.656;11.302;2022-09-27T15:48:26;96691.91;;;20.59;56.18
33163;BME280;29282;45.656;11.302;2022-09-27T15:50:52;96691.53;;;20.61;56.52
33163;BME280;29282;45.656;11.302;2022-09-27T15:56:00;96703.75;;;20.63;56.83